createdAt,value
2022-09-01T00:00:45.000Z,18.3
2022-09-01T00:02:02.000Z,18.4
2022-09-01T00:04:34.000Z,18.4
2022-09-01T00:05:49.000Z,18.4
2022-09-01T00:07:05.000Z,18.4
2022-09-01T00:08:22.000Z,18.4
2022-09-01T00:09:38.000Z,18.4
2022-09-01T00:10:54.000Z,18.4
2022-09-01T00:12:10.000Z,18.3
2022-09-01T00:13:25.000Z,18.4
2022-09-01T00:14:41.000Z,18.4
2022-09-01T00:15:56.000Z,18.4
2022-09-01T00:17:11.000Z,18.3
2022-09-01T00:18:27.000Z,18.3
2022-09-01T00:19:43.000Z,18.3
2022-09-01T00:21:00.000Z,18.2
2022-09-01T00:22:16.000Z,18.1
2022-09-01T00:23:32.000Z,18.1
2022-09-01T00:24:48.000Z,18
2022-09-01T00:26:04.000Z,18
2022-09-01T00:27:21.000Z,18
2022-09-01T00:29:53.000Z,17.9
2022-09-01T00:31:09.000Z,17.9
2022-09-01T00:32:25.000Z,17.9
2022-09-01T00:33:41.000Z,17.9
2022-09-01T00:34:57.000Z,17.9
2022-09-01T00:36:13.000Z,17.9
2022-09-01T00:37:29.000Z,17.9
2022-09-01T00:38:45.000Z,17.9
2022-09-01T00:40:02.000Z,17.9
2022-09-01T00:41:18.000Z,17.9
2022-09-01T00:42:34.000Z,17.9
2022-09-01T00:43:49.000Z,17.8
2022-09-01T00:45:04.000Z,17.8
2022-09-01T00:46:20.000Z,17.8
2022-09-01T00:47:35.000Z,17.8
2022-09-01T00:48:51.000Z,17.8
2022-09-01T00:50:07.000Z,17.8
2022-09-01T00:51:23.000Z,17.8
2022-09-01T00:52:40.000Z,17.9
2022-09-01T00:53:56.000Z,17.9
2022-09-01T00:55:12.000Z,17.9
2022-09-01T00:56:28.000Z,18
2022-09-01T00:57:44.000Z,17.9
2022-09-01T00:59:01.000Z,17.9
2022-09-01T01:00:17.000Z,17.9
2022-09-01T01:01:33.000Z,18
2022-09-01T01:02:49.000Z,18
2022-09-01T01:04:04.000Z,17.9
2022-09-01T01:05:21.000Z,17.9
2022-09-01T01:07:53.000Z,17.9
2022-09-01T01:09:09.000Z,17.8
2022-09-01T01:10:25.000Z,17.9
2022-09-01T01:11:42.000Z,17.8
2022-09-01T01:12:58.000Z,17.7
2022-09-01T01:14:13.000Z,17.7
2022-09-01T01:15:28.000Z,17.7
2022-09-01T01:16:43.000Z,17.7
2022-09-01T01:17:59.000Z,17.7
2022-09-01T01:19:15.000Z,17.6
2022-09-01T01:20:31.000Z,17.6
2022-09-01T01:21:47.000Z,17.6
2022-09-01T01:23:03.000Z,17.6
2022-09-01T01:24:20.000Z,17.7
2022-09-01T01:25:36.000Z,17.7
2022-09-01T01:26:52.000Z,17.8
2022-09-01T01:28:08.000Z,17.7
2022-09-01T01:29:24.000Z,17.7
2022-09-01T01:30:41.000Z,17.6
2022-09-01T01:31:57.000Z,17.5
2022-09-01T01:33:13.000Z,17.5
2022-09-01T01:34:28.000Z,17.4
2022-09-01T01:35:44.000Z,17.4
2022-09-01T01:37:01.000Z,17.3
2022-09-01T01:38:17.000Z,17.2
2022-09-01T01:39:33.000Z,17.2
2022-09-01T01:40:49.000Z,17.2
2022-09-01T01:42:05.000Z,17.2
2022-09-01T01:43:21.000Z,17.2
2022-09-01T01:44:36.000Z,17.2
2022-09-01T01:45:52.000Z,17.2
2022-09-01T01:47:08.000Z,17.2
2022-09-01T01:48:23.000Z,17.2
2022-09-01T01:49:39.000Z,17.1
2022-09-01T01:50:55.000Z,17.1
2022-09-01T01:52:11.000Z,17.1
2022-09-01T01:53:27.000Z,17.1
2022-09-01T01:54:43.000Z,17.1
2022-09-01T01:56:00.000Z,17.1
2022-09-01T01:57:16.000Z,17.1
2022-09-01T01:58:32.000Z,17
2022-09-01T01:59:48.000Z,17
2022-09-01T02:01:04.000Z,17
2022-09-01T02:02:21.000Z,16.9
2022-09-01T02:03:37.000Z,16.9
2022-09-01T02:04:53.000Z,16.9
2022-09-01T02:06:08.000Z,16.9
2022-09-01T02:07:24.000Z,16.8
2022-09-01T02:08:41.000Z,16.9
2022-09-01T02:09:57.000Z,16.9
2022-09-01T02:11:13.000Z,16.9
2022-09-01T02:12:29.000Z,16.8
2022-09-01T02:13:45.000Z,16.9
2022-09-01T02:15:01.005Z,16.9
2022-09-01T02:16:16.000Z,16.8
2022-09-01T02:17:31.000Z,16.8
2022-09-01T02:18:46.000Z,16.8
2022-09-01T02:20:01.000Z,16.7
2022-09-01T02:21:18.000Z,16.7
2022-09-01T02:22:34.000Z,16.7
2022-09-01T02:23:50.000Z,16.8
2022-09-01T02:25:06.000Z,16.8
2022-09-01T02:26:22.000Z,16.8
2022-09-01T02:27:39.000Z,16.9
2022-09-01T02:28:55.000Z,16.8
2022-09-01T02:30:11.000Z,16.9
2022-09-01T02:31:27.000Z,16.9
2022-09-01T02:32:43.000Z,16.8
2022-09-01T02:34:00.000Z,16.8
2022-09-01T02:35:16.000Z,16.8
2022-09-01T02:36:31.000Z,16.9
2022-09-01T02:37:47.000Z,16.8
2022-09-01T02:39:03.000Z,16.8
2022-09-01T02:40:20.000Z,16.7
2022-09-01T02:41:36.000Z,16.6
2022-09-01T02:42:52.000Z,16.6
2022-09-01T02:44:07.000Z,16.5
2022-09-01T02:45:22.000Z,16.6
2022-09-01T02:46:38.000Z,16.5
2022-09-01T02:47:53.000Z,16.5
2022-09-01T02:49:09.000Z,16.5
2022-09-01T02:50:25.000Z,16.5
2022-09-01T02:51:41.000Z,16.6
2022-09-01T02:52:58.000Z,16.6
2022-09-01T02:54:14.000Z,16.6
2022-09-01T02:55:30.000Z,16.6
2022-09-01T02:56:46.000Z,16.6
2022-09-01T02:58:02.000Z,16.6
2022-09-01T02:59:19.000Z,16.5
2022-09-01T03:00:35.000Z,16.6
2022-09-01T03:01:51.000Z,16.6
2022-09-01T03:03:07.000Z,16.6
2022-09-01T03:04:22.000Z,16.6
2022-09-01T03:05:39.000Z,16.5
2022-09-01T03:06:55.000Z,16.4
2022-09-01T03:08:11.000Z,16.4
2022-09-01T03:09:27.000Z,16.3
2022-09-01T03:10:43.000Z,16.4
2022-09-01T03:11:59.000Z,16.5
2022-09-01T03:13:15.000Z,16.6
2022-09-01T03:14:30.000Z,16.6
2022-09-01T03:15:46.000Z,16.6
2022-09-01T03:17:02.000Z,16.5
2022-09-01T03:18:19.000Z,16.6
2022-09-01T03:19:35.000Z,16.6
2022-09-01T03:20:51.000Z,16.6
2022-09-01T03:22:07.000Z,16.5
2022-09-01T03:23:23.000Z,16.5
2022-09-01T03:24:39.000Z,16.5
2022-09-01T03:25:56.000Z,16.5
2022-09-01T03:27:12.000Z,16.5
2022-09-01T03:28:28.000Z,16.4
2022-09-01T03:29:44.000Z,16.3
2022-09-01T03:30:59.000Z,16.3
2022-09-01T03:32:16.000Z,16.3
2022-09-01T03:33:32.000Z,16.3
2022-09-01T03:34:48.000Z,16.3
2022-09-01T03:36:04.000Z,16.4
2022-09-01T03:37:20.000Z,16.3
2022-09-01T03:38:37.000Z,16.4
2022-09-01T03:39:52.000Z,16.4
2022-09-01T03:41:07.000Z,16.4
2022-09-01T03:42:22.000Z,16.3
2022-09-01T03:43:38.000Z,16.3
2022-09-01T03:44:53.000Z,16.3
2022-09-01T03:46:08.000Z,16.3
2022-09-01T03:47:24.000Z,16.2
2022-09-01T03:48:40.000Z,16.2
2022-09-01T03:49:57.000Z,16.2
2022-09-01T03:51:13.000Z,16.2
2022-09-01T03:52:29.000Z,16.3
2022-09-01T03:53:45.000Z,16.3
2022-09-01T03:55:01.000Z,16.4
2022-09-01T03:56:18.000Z,16.4
2022-09-01T03:57:34.000Z,16.5
2022-09-01T03:58:50.000Z,16.6
2022-09-01T04:00:06.000Z,16.6
2022-09-01T04:01:22.000Z,16.5
2022-09-01T04:02:38.000Z,16.5
2022-09-01T04:03:54.000Z,16.5
2022-09-01T04:05:10.000Z,16.5
2022-09-01T04:06:26.000Z,16.5
2022-09-01T04:07:42.000Z,16.5
2022-09-01T04:08:59.000Z,16.6
2022-09-01T04:10:15.000Z,16.5
2022-09-01T04:11:30.000Z,16.4
2022-09-01T04:12:45.000Z,16.4
2022-09-01T04:14:01.000Z,16.4
2022-09-01T04:15:18.000Z,16.4
2022-09-01T04:16:34.000Z,16.5
2022-09-01T04:17:50.000Z,16.4
2022-09-01T04:19:06.000Z,16.3
2022-09-01T04:20:22.000Z,16.3
2022-09-01T04:21:38.000Z,16.4
2022-09-01T04:22:55.000Z,16.3
2022-09-01T04:24:11.000Z,16.3
2022-09-01T04:25:27.000Z,16.3
2022-09-01T04:26:43.000Z,16.4
2022-09-01T04:27:59.000Z,16.3
2022-09-01T04:29:15.000Z,16.2
2022-09-01T04:30:31.000Z,16.2
2022-09-01T04:31:47.000Z,16.3
2022-09-01T04:33:03.000Z,16.3
2022-09-01T04:34:19.000Z,16.4
2022-09-01T04:35:36.000Z,16.4
2022-09-01T04:36:52.000Z,16.5
2022-09-01T04:38:07.000Z,16.5
2022-09-01T04:39:22.000Z,16.5
2022-09-01T04:40:38.000Z,16.5
2022-09-01T04:41:53.000Z,16.4
2022-09-01T04:43:09.000Z,16.3
2022-09-01T04:44:25.000Z,16.3
2022-09-01T04:45:40.000Z,16.2
2022-09-01T04:46:56.000Z,16.2
2022-09-01T04:48:12.000Z,16.2
2022-09-01T04:49:28.000Z,16.1
2022-09-01T04:50:44.000Z,16.1
2022-09-01T04:52:00.000Z,16.1
2022-09-01T04:53:17.000Z,16.1
2022-09-01T04:54:33.000Z,16.1
2022-09-01T04:55:49.000Z,16.1
2022-09-01T04:57:05.000Z,16.1
2022-09-01T04:58:21.000Z,16.1
2022-09-01T04:59:38.000Z,16.2
2022-09-01T05:00:54.000Z,16.2
2022-09-01T05:02:10.000Z,16.2
2022-09-01T05:03:25.000Z,16.2
2022-09-01T05:04:41.000Z,16.2
2022-09-01T05:05:58.000Z,16.1
2022-09-01T05:07:14.000Z,16.1
2022-09-01T05:08:30.000Z,16.1
2022-09-01T05:09:46.000Z,16.1
2022-09-01T05:11:02.000Z,16.2
2022-09-01T05:12:18.000Z,16.2
2022-09-01T05:13:33.000Z,16.2
2022-09-01T05:14:49.000Z,16.1
2022-09-01T05:16:04.000Z,16.2
2022-09-01T05:17:19.000Z,16.2
2022-09-01T05:18:36.000Z,16.3
2022-09-01T05:19:52.000Z,16.2
2022-09-01T05:21:08.000Z,16.2
2022-09-01T05:22:24.000Z,16.1
2022-09-01T05:23:40.000Z,16.1
2022-09-01T05:24:57.000Z,16.2
2022-09-01T05:26:13.000Z,16.2
2022-09-01T05:27:29.000Z,16.2
2022-09-01T05:28:45.000Z,16.2
2022-09-01T05:30:01.000Z,16.2
2022-09-01T05:31:17.000Z,16.2
2022-09-01T05:32:34.000Z,16.2
2022-09-01T05:33:49.000Z,16.2
2022-09-01T05:35:05.000Z,16.2
2022-09-01T05:36:21.000Z,16.2
2022-09-01T05:37:37.000Z,16.2
2022-09-01T05:38:54.000Z,16.1
2022-09-01T05:40:10.000Z,16
2022-09-01T05:41:26.000Z,16.1
2022-09-01T05:42:41.000Z,16.1
2022-09-01T05:43:57.000Z,16.1
2022-09-01T05:45:13.000Z,16.2
2022-09-01T05:46:29.000Z,16.3
2022-09-01T05:47:44.000Z,16.4
2022-09-01T05:48:59.000Z,16.4
2022-09-01T05:50:16.000Z,16.4
2022-09-01T05:51:32.000Z,16.7
2022-09-01T05:52:48.000Z,16.8
2022-09-01T05:54:04.000Z,16.7
2022-09-01T05:55:20.000Z,16.7
2022-09-01T05:56:37.000Z,16.7
2022-09-01T05:59:09.000Z,18.7
2022-09-01T06:00:25.000Z,20
2022-09-01T06:01:41.000Z,20.9
2022-09-01T06:02:57.000Z,21.4
2022-09-01T06:04:14.000Z,21.8
2022-09-01T06:05:29.000Z,22.5
2022-09-01T06:06:45.000Z,23.2
2022-09-01T06:08:01.000Z,23.7
2022-09-01T06:09:17.000Z,24
2022-09-01T06:11:50.000Z,24.8
2022-09-01T06:13:05.000Z,24.7
2022-09-01T06:14:20.000Z,24.7
2022-09-01T06:15:37.000Z,25
2022-09-01T06:16:53.000Z,25.6
2022-09-01T06:18:09.000Z,25.5
2022-09-01T06:19:25.000Z,25.3
2022-09-01T06:20:41.000Z,25.8
2022-09-01T06:21:57.000Z,26.3
2022-09-01T06:24:30.000Z,25.9
2022-09-01T06:25:46.000Z,26.3
2022-09-01T06:27:02.000Z,26.8
2022-09-01T06:28:18.000Z,26.8
2022-09-01T06:29:35.000Z,26.7
2022-09-01T06:30:50.000Z,26.6
2022-09-01T06:32:06.000Z,26.5
2022-09-01T06:33:22.000Z,27.2
2022-09-01T06:34:38.000Z,27.8
2022-09-01T06:35:54.000Z,27.9
2022-09-01T06:37:10.000Z,28
2022-09-01T06:38:26.000Z,28.2
2022-09-01T06:39:42.000Z,28.5
2022-09-01T06:40:58.000Z,28.3
2022-09-01T06:42:13.000Z,28.7
2022-09-01T06:43:29.000Z,28.7
2022-09-01T06:44:44.000Z,28.4
2022-09-01T06:45:59.000Z,28.2
2022-09-01T06:47:15.000Z,28.1
2022-09-01T06:49:46.000Z,28.4
2022-09-01T06:51:02.000Z,28.8
2022-09-01T06:52:18.000Z,28.9
2022-09-01T06:53:35.000Z,28.3
2022-09-01T06:54:51.000Z,28.4
2022-09-01T06:56:07.000Z,29.1
2022-09-01T06:57:23.000Z,29.5
2022-09-01T06:58:39.000Z,30
2022-09-01T06:59:56.000Z,30.2
2022-09-01T07:01:12.000Z,29.7
2022-09-01T07:02:28.000Z,30.2
2022-09-01T07:03:44.000Z,30.6
2022-09-01T07:04:59.000Z,30
2022-09-01T07:06:16.000Z,30.1
2022-09-01T07:07:32.000Z,30.3
2022-09-01T07:08:48.000Z,30.7
2022-09-01T07:10:04.000Z,30.4
2022-09-01T07:11:20.000Z,30.6
2022-09-01T07:12:37.000Z,31.1
2022-09-01T07:13:53.000Z,31.4
2022-09-01T07:15:08.000Z,31.3
2022-09-01T07:16:23.000Z,31.2
2022-09-01T07:17:38.000Z,30.4
2022-09-01T07:18:54.000Z,30.6
2022-09-01T07:20:10.000Z,31.1
2022-09-01T07:21:26.000Z,30.7
2022-09-01T07:22:42.000Z,31
2022-09-01T07:23:58.000Z,31.5
2022-09-01T07:25:15.000Z,31.6
2022-09-01T07:26:31.000Z,31.4
2022-09-01T07:27:47.000Z,31.4
2022-09-01T07:29:03.000Z,31.6
2022-09-01T07:30:19.000Z,31.2
2022-09-01T07:31:36.000Z,31.4
2022-09-01T07:32:52.000Z,31.9
2022-09-01T07:35:24.000Z,31.9
2022-09-01T07:36:39.000Z,31.9
2022-09-01T07:37:56.000Z,31.6
2022-09-01T07:39:12.000Z,31.8
2022-09-01T07:40:28.000Z,32.4
2022-09-01T07:41:44.000Z,33
2022-09-01T07:43:00.000Z,33.5
2022-09-01T07:44:17.000Z,34
2022-09-01T07:45:32.000Z,33.7
2022-09-01T07:46:47.000Z,33
2022-09-01T07:48:03.000Z,32.8
2022-09-01T07:49:18.000Z,32.9
2022-09-01T07:50:35.000Z,33.3
2022-09-01T07:51:50.000Z,33.7
2022-09-01T07:53:06.000Z,34.1
2022-09-01T07:54:22.000Z,34.1
2022-09-01T07:55:38.000Z,33.9
2022-09-01T07:56:53.000Z,34
2022-09-01T07:58:09.000Z,34.3
2022-09-01T07:59:25.000Z,33.6
2022-09-01T08:00:41.000Z,32.6
2022-09-01T08:01:58.000Z,32.8
2022-09-01T08:03:14.000Z,33.2
2022-09-01T08:04:30.000Z,33.6
2022-09-01T08:05:46.000Z,34.1
2022-09-01T08:07:02.000Z,34.5
2022-09-01T08:08:19.000Z,34.5
2022-09-01T08:09:35.000Z,35
2022-09-01T08:10:51.000Z,35.3
2022-09-01T08:12:07.000Z,35.3
2022-09-01T08:13:22.000Z,35.5
2022-09-01T08:14:39.000Z,35.8
2022-09-01T08:15:55.000Z,36
2022-09-01T08:17:11.000Z,35.7
2022-09-01T08:18:27.000Z,35.6
2022-09-01T08:19:43.000Z,34.7
2022-09-01T08:21:00.000Z,34.9
2022-09-01T08:22:15.000Z,35.3
2022-09-01T08:23:30.000Z,35.3
2022-09-01T08:24:46.000Z,35.5
2022-09-01T08:26:01.000Z,34.7
2022-09-01T08:27:17.000Z,33.9
2022-09-01T08:28:33.000Z,33.6
2022-09-01T08:29:49.000Z,33.8
2022-09-01T08:31:05.000Z,34.6
2022-09-01T08:32:21.000Z,35
2022-09-01T08:33:38.000Z,35
2022-09-01T08:34:54.000Z,35.6
2022-09-01T08:36:10.000Z,35.7
2022-09-01T08:37:26.000Z,35.3
2022-09-01T08:38:42.000Z,35.7
2022-09-01T08:39:59.000Z,35.7
2022-09-01T08:41:15.000Z,35.5
2022-09-01T08:43:47.000Z,36
2022-09-01T08:45:02.000Z,36.1
2022-09-01T08:46:19.000Z,36
2022-09-01T08:47:35.000Z,35.4
2022-09-01T08:48:51.000Z,34.6
2022-09-01T08:50:07.000Z,34.4
2022-09-01T08:51:23.000Z,34.8
2022-09-01T08:52:40.000Z,34.7
2022-09-01T08:53:55.000Z,34.6
2022-09-01T08:55:10.000Z,34.1
2022-09-01T08:56:26.000Z,33.6
2022-09-01T08:57:41.000Z,32.4
2022-09-01T08:58:57.000Z,32.7
2022-09-01T09:00:13.000Z,32.6
2022-09-01T09:01:29.000Z,32.7
2022-09-01T09:02:45.000Z,32.8
2022-09-01T09:04:01.000Z,32.5
2022-09-01T09:05:18.000Z,32.5
2022-09-01T09:06:34.000Z,32.6
2022-09-01T09:07:50.000Z,32.6
2022-09-01T09:09:06.000Z,32.8
2022-09-01T09:10:22.000Z,32
2022-09-01T09:11:39.000Z,32
2022-09-01T09:12:55.000Z,32
2022-09-01T09:14:11.000Z,31
2022-09-01T09:15:26.000Z,30
2022-09-01T09:16:42.000Z,29.4
2022-09-01T09:17:59.000Z,29
2022-09-01T09:19:15.000Z,28.6
2022-09-01T09:20:31.000Z,27.9
2022-09-01T09:21:47.000Z,27.5
2022-09-01T09:23:03.000Z,27.7
2022-09-01T09:24:19.000Z,28
2022-09-01T09:25:34.000Z,27.8
2022-09-01T09:26:49.000Z,27.9
2022-09-01T09:28:04.000Z,28.2
2022-09-01T09:29:20.000Z,28.6
2022-09-01T09:30:37.000Z,28.8
2022-09-01T09:31:53.000Z,29
2022-09-01T09:33:09.000Z,28.9
2022-09-01T09:34:25.000Z,28.9
2022-09-01T09:35:41.000Z,28.5
2022-09-01T09:36:58.000Z,28.5
2022-09-01T09:38:14.000Z,28.7
2022-09-01T09:39:30.000Z,28.8
2022-09-01T09:40:46.000Z,28.5
2022-09-01T09:42:02.000Z,27.3
2022-09-01T09:43:19.000Z,26.3
2022-09-01T09:45:50.000Z,25.6
2022-09-01T09:47:06.000Z,25.5
2022-09-01T09:48:22.000Z,25.5
2022-09-01T09:49:39.000Z,25.3
2022-09-01T09:50:55.000Z,25.6
2022-09-01T09:52:11.000Z,25.5
2022-09-01T09:53:27.000Z,25.5
2022-09-01T09:54:42.000Z,25.4
2022-09-01T09:55:58.000Z,25.6
2022-09-01T09:57:14.000Z,25.9
2022-09-01T09:58:30.000Z,26.2
2022-09-01T09:59:46.000Z,26.3
2022-09-01T10:01:02.000Z,26.2
2022-09-01T10:03:35.000Z,25.9
2022-09-01T10:04:51.000Z,25.5
2022-09-01T10:06:07.000Z,25.4
2022-09-01T10:07:23.000Z,25.8
2022-09-01T10:08:39.000Z,26.1
2022-09-01T10:09:56.000Z,26.5
2022-09-01T10:12:28.000Z,26.3
2022-09-01T10:13:43.000Z,26
2022-09-01T10:14:59.000Z,26.1
2022-09-01T10:16:15.000Z,26.3
2022-09-01T10:17:30.000Z,26.3
2022-09-01T10:18:45.000Z,26.4
2022-09-01T10:20:01.000Z,26.4
2022-09-01T10:21:18.000Z,26.3
2022-09-01T10:22:34.000Z,26.1
2022-09-01T10:23:50.000Z,25.9
2022-09-01T10:25:06.000Z,25.9
2022-09-01T10:26:22.000Z,25.9
2022-09-01T10:27:38.000Z,25.5
2022-09-01T10:28:55.000Z,25.3
2022-09-01T10:31:27.000Z,25.8
2022-09-01T10:32:43.000Z,26.4
2022-09-01T10:33:59.000Z,26.7
2022-09-01T10:35:15.000Z,27
2022-09-01T10:36:31.000Z,27.4
2022-09-01T10:37:47.000Z,27.6
2022-09-01T10:39:03.000Z,27.7
2022-09-01T10:40:19.000Z,27.6
2022-09-01T10:41:36.000Z,27.4
2022-09-01T10:42:52.000Z,27.4
2022-09-01T10:44:08.000Z,27.2
2022-09-01T10:45:23.000Z,27
2022-09-01T10:46:38.000Z,27.1
2022-09-01T10:47:54.000Z,27
2022-09-01T10:49:09.000Z,26.8
2022-09-01T10:50:25.000Z,26.6
2022-09-01T10:51:41.000Z,26.4
2022-09-01T10:52:57.000Z,26.3
2022-09-01T10:54:14.000Z,26.3
2022-09-01T10:55:30.000Z,26.4
2022-09-01T10:56:46.000Z,26.5
2022-09-01T10:58:02.000Z,26.7
2022-09-01T10:59:18.000Z,26.8
2022-09-01T11:00:35.000Z,27
2022-09-01T11:01:51.000Z,27
2022-09-01T11:03:07.000Z,27.1
2022-09-01T11:04:23.000Z,27.2
2022-09-01T11:05:38.000Z,27.2
2022-09-01T11:06:55.000Z,26.8
2022-09-01T11:08:11.000Z,26.8
2022-09-01T11:09:27.000Z,26.8
2022-09-01T11:10:43.000Z,26.8
2022-09-01T11:11:59.000Z,26.6
2022-09-01T11:13:16.000Z,26.1
2022-09-01T11:15:47.000Z,26.2
2022-09-01T11:17:03.000Z,26.3
2022-09-01T11:18:18.000Z,26.6
2022-09-01T11:19:34.000Z,26.7
2022-09-01T11:20:49.000Z,26.7
2022-09-01T11:22:04.000Z,27
2022-09-01T11:23:20.000Z,27.3
2022-09-01T11:24:36.000Z,27.2
2022-09-01T11:25:53.000Z,27.4
2022-09-01T11:27:09.000Z,27.3
2022-09-01T11:28:25.000Z,27.1
2022-09-01T11:29:41.000Z,27
2022-09-01T11:30:57.000Z,26.9
2022-09-01T11:32:14.000Z,26.9
2022-09-01T11:33:30.000Z,27.1
2022-09-01T11:34:46.000Z,27.1
2022-09-01T11:36:02.000Z,26.8
2022-09-01T11:37:18.000Z,26.4
2022-09-01T11:38:34.000Z,25.8
2022-09-01T11:39:50.000Z,25.4
2022-09-01T11:41:06.000Z,25.5
2022-09-01T11:42:22.000Z,25.7
2022-09-01T11:43:38.000Z,25.9
2022-09-01T11:44:55.000Z,25.8
2022-09-01T11:46:11.000Z,25.8
2022-09-01T11:47:26.000Z,25.7
2022-09-01T11:48:41.000Z,25.5
2022-09-01T11:49:57.000Z,25.5
2022-09-01T11:51:13.000Z,25.5
2022-09-01T11:52:28.000Z,25.6
2022-09-01T11:53:44.000Z,25.8
2022-09-01T11:55:00.000Z,25.9
2022-09-01T11:56:16.000Z,25.8
2022-09-01T11:57:33.000Z,25.8
2022-09-01T11:58:49.000Z,25.9
2022-09-01T12:00:05.000Z,26
2022-09-01T12:01:21.000Z,26
2022-09-01T12:02:37.000Z,25.7
2022-09-01T12:03:54.000Z,25.8
2022-09-01T12:05:10.000Z,25.8
2022-09-01T12:06:26.000Z,25.4
2022-09-01T12:07:42.000Z,25.1
2022-09-01T12:08:57.000Z,25.1
2022-09-01T12:10:14.000Z,25.2
2022-09-01T12:11:30.000Z,25.4
2022-09-01T12:12:46.000Z,25.7
2022-09-01T12:14:02.000Z,25.9
2022-09-01T12:15:18.000Z,26.1
2022-09-01T12:16:34.000Z,26.2
2022-09-01T12:17:50.000Z,26.3
2022-09-01T12:19:05.000Z,26.4
2022-09-01T12:20:21.000Z,26.3
2022-09-01T12:21:36.000Z,26.3
2022-09-01T12:22:52.000Z,26.3
2022-09-01T12:24:08.000Z,26.2
2022-09-01T12:25:24.000Z,26.2
2022-09-01T12:26:40.000Z,26.2
2022-09-01T12:27:56.000Z,26.2
2022-09-01T12:29:13.000Z,26.1
2022-09-01T12:30:29.000Z,26.1
2022-09-01T12:31:45.000Z,26.1
2022-09-01T12:33:01.000Z,25.8
2022-09-01T12:34:17.000Z,25.8
2022-09-01T12:35:33.000Z,25.8
2022-09-01T12:36:50.000Z,25.7
2022-09-01T12:38:06.000Z,25.5
2022-09-01T12:39:21.000Z,25.6
2022-09-01T12:40:37.000Z,25.7
2022-09-01T12:41:53.000Z,25.8
2022-09-01T12:43:10.000Z,25.7
2022-09-01T12:44:26.000Z,25.6
2022-09-01T12:45:42.000Z,25.4
2022-09-01T12:46:58.000Z,25.4
2022-09-01T12:48:13.000Z,25.5
2022-09-01T12:49:29.000Z,25.4
2022-09-01T12:50:45.000Z,25.4
2022-09-01T12:52:00.000Z,25.6
2022-09-01T12:53:15.000Z,25.7
2022-09-01T12:54:31.000Z,25.5
2022-09-01T12:55:48.000Z,25.3
2022-09-01T12:57:04.000Z,25.2
2022-09-01T12:58:20.000Z,25.2
2022-09-01T12:59:36.000Z,25.2
2022-09-01T13:00:52.000Z,25.2
2022-09-01T13:02:09.000Z,25.2
2022-09-01T13:03:25.000Z,25.2
2022-09-01T13:04:41.000Z,25.5
2022-09-01T13:05:57.000Z,25.6
2022-09-01T13:07:13.000Z,25.6
2022-09-01T13:08:30.000Z,25.6
2022-09-01T13:09:45.000Z,25.7
2022-09-01T13:11:01.000Z,25.8
2022-09-01T13:12:17.000Z,25.6
2022-09-01T13:13:33.000Z,25.7
2022-09-01T13:14:50.000Z,25.8
2022-09-01T13:16:06.000Z,25.9
2022-09-01T13:17:22.000Z,26
2022-09-01T13:18:37.000Z,25.9
2022-09-01T13:19:52.000Z,25.8
2022-09-01T13:21:09.000Z,25.8
2022-09-01T13:22:25.000Z,25.7
2022-09-01T13:23:40.000Z,25.7
2022-09-01T13:24:55.000Z,25.7
2022-09-01T13:26:11.000Z,25.7
2022-09-01T13:27:28.000Z,25.6
2022-09-01T13:28:44.000Z,25.7
2022-09-01T13:30:00.000Z,25.7
2022-09-01T13:31:16.000Z,25.4
2022-09-01T13:32:32.000Z,25.5
2022-09-01T13:33:49.000Z,25.3
2022-09-01T13:35:05.000Z,25.2
2022-09-01T13:36:21.000Z,25.2
2022-09-01T13:37:37.000Z,25.3
2022-09-01T13:38:53.000Z,25.3
2022-09-01T13:40:10.000Z,25.3
2022-09-01T13:41:25.000Z,25.4
2022-09-01T13:42:41.000Z,25.4
2022-09-01T13:43:57.000Z,25.5
2022-09-01T13:45:13.000Z,25.5
2022-09-01T13:46:30.000Z,25.5
2022-09-01T13:47:46.000Z,25.5
2022-09-01T13:49:02.000Z,25.5
2022-09-01T13:50:17.000Z,25.6
2022-09-01T13:51:32.000Z,25.7
2022-09-01T13:52:48.000Z,25.6
2022-09-01T13:54:03.000Z,25.7
2022-09-01T13:55:19.000Z,25.7
2022-09-01T13:56:35.000Z,25.7
2022-09-01T13:57:51.000Z,25.6
2022-09-01T13:59:08.000Z,25.6
2022-09-01T14:00:24.000Z,25.7
2022-09-01T14:01:40.000Z,25.8
2022-09-01T14:02:56.000Z,25.6
2022-09-01T14:04:12.000Z,25.4
2022-09-01T14:05:29.000Z,25.4
2022-09-01T14:06:45.000Z,25.3
2022-09-01T14:08:01.000Z,25.2
2022-09-01T14:09:17.000Z,25.2
2022-09-01T14:10:32.000Z,25.2
2022-09-01T14:13:05.000Z,25.1
2022-09-01T14:14:21.000Z,25.1
2022-09-01T14:15:37.000Z,25.2
2022-09-01T14:16:53.000Z,25.2
2022-09-01T14:18:09.000Z,25.2
2022-09-01T14:19:26.000Z,25.2
2022-09-01T14:20:41.000Z,25.1
2022-09-01T14:21:56.000Z,25.2
2022-09-01T14:23:11.000Z,25.2
2022-09-01T14:25:43.000Z,25.1
2022-09-01T14:26:59.000Z,25.2
2022-09-01T14:28:15.000Z,25.3
2022-09-01T14:29:31.000Z,25.2
2022-09-01T14:30:48.000Z,25.3
2022-09-01T14:32:04.000Z,25.4
2022-09-01T14:33:20.000Z,25.4
2022-09-01T14:34:36.000Z,25.3
2022-09-01T14:35:52.000Z,25.4
2022-09-01T14:37:08.000Z,25.4
2022-09-01T14:38:25.000Z,25.4
2022-09-01T14:39:41.000Z,25.4
2022-09-01T14:40:56.000Z,25.4
2022-09-01T14:42:12.000Z,25.5
2022-09-01T14:43:28.000Z,25.5
2022-09-01T14:44:45.000Z,25.5
2022-09-01T14:46:01.000Z,25.5
2022-09-01T14:47:17.000Z,25.4
2022-09-01T14:48:33.000Z,25.2
2022-09-01T14:49:49.000Z,25.2
2022-09-01T14:51:05.000Z,25.2
2022-09-01T14:52:20.000Z,25.1
2022-09-01T14:53:35.000Z,25.1
2022-09-01T14:54:50.000Z,25.1
2022-09-01T14:56:06.000Z,25.2
2022-09-01T14:57:23.000Z,25.3
2022-09-01T14:58:39.000Z,25.3
2022-09-01T14:59:55.000Z,25.3
2022-09-01T15:01:11.000Z,25.3
2022-09-01T15:02:27.000Z,25.3
2022-09-01T15:03:44.000Z,25.3
2022-09-01T15:05:00.000Z,25.3
2022-09-01T15:06:15.000Z,25.3
2022-09-01T15:07:31.000Z,25.2
2022-09-01T15:08:47.000Z,25.2
2022-09-01T15:10:04.000Z,25.1
2022-09-01T15:11:20.000Z,25.1
2022-09-01T15:12:36.000Z,25.2
2022-09-01T15:13:52.000Z,25.1
2022-09-01T15:16:25.000Z,25.2
2022-09-01T15:17:41.000Z,25.2
2022-09-01T15:18:57.000Z,25.2
2022-09-01T15:20:13.000Z,25.1
2022-09-01T15:21:29.000Z,25
2022-09-01T15:22:45.000Z,24.9
2022-09-01T15:24:00.000Z,24.9
2022-09-01T15:25:15.000Z,24.9
2022-09-01T15:26:30.000Z,24.9
2022-09-01T15:29:03.000Z,25.1
2022-09-01T15:30:19.000Z,25.1
2022-09-01T15:31:35.000Z,25
2022-09-01T15:32:51.000Z,25
2022-09-01T15:34:07.000Z,25.1
2022-09-01T15:35:24.000Z,25.1
2022-09-01T15:36:40.000Z,25.1
2022-09-01T15:37:56.000Z,25.1
2022-09-01T15:39:12.000Z,25.1
2022-09-01T15:40:28.000Z,25.2
2022-09-01T15:41:45.000Z,25.2
2022-09-01T15:43:00.000Z,25.1
2022-09-01T15:44:16.000Z,25.1
2022-09-01T15:45:32.000Z,25
2022-09-01T15:46:48.000Z,25
2022-09-01T15:48:05.000Z,25.1
2022-09-01T15:49:21.000Z,25.1
2022-09-01T15:50:37.000Z,25.1
2022-09-01T15:51:53.000Z,25.1
2022-09-01T15:53:08.000Z,25
2022-09-01T15:54:24.000Z,25
2022-09-01T15:55:40.000Z,25
2022-09-01T15:56:56.000Z,25
2022-09-01T15:58:12.000Z,25
2022-09-01T15:59:28.000Z,24.9
2022-09-01T16:00:45.000Z,24.9
2022-09-01T16:02:01.000Z,24.8
2022-09-01T16:03:17.000Z,24.8
2022-09-01T16:04:33.000Z,24.8
2022-09-01T16:05:49.000Z,24.8
2022-09-01T16:07:05.000Z,24.8
2022-09-01T16:08:22.000Z,24.9
2022-09-01T16:09:38.000Z,24.9
2022-09-01T16:10:53.000Z,24.9
2022-09-01T16:12:09.000Z,24.8
2022-09-01T16:13:25.000Z,24.8
2022-09-01T16:14:42.000Z,24.8
2022-09-01T16:15:58.337Z,24.9
2022-09-01T16:17:14.000Z,24.9
2022-09-01T16:18:30.000Z,25
2022-09-01T16:19:45.000Z,25
2022-09-01T16:21:01.000Z,25
2022-09-01T16:22:17.000Z,25
2022-09-01T16:23:32.000Z,24.9
2022-09-01T16:24:47.000Z,24.8
2022-09-01T16:26:03.000Z,24.9
2022-09-01T16:27:18.000Z,24.9
2022-09-01T16:28:34.000Z,24.9
2022-09-01T16:29:50.000Z,24.9
2022-09-01T16:32:23.000Z,24.8
2022-09-01T16:33:39.000Z,24.7
2022-09-01T16:34:55.000Z,24.6
2022-09-01T16:36:11.000Z,24.7
2022-09-01T16:37:27.000Z,24.7
2022-09-01T16:38:43.000Z,24.8
2022-09-01T16:40:00.000Z,24.9
2022-09-01T16:41:16.000Z,24.9
2022-09-01T16:42:32.000Z,25.3
2022-09-01T16:43:47.000Z,25.5
2022-09-01T16:45:03.000Z,25.5
2022-09-01T16:46:20.000Z,25.3
2022-09-01T16:47:36.000Z,25
2022-09-01T16:48:52.000Z,24.9
2022-09-01T16:50:08.000Z,24.7
2022-09-01T16:51:24.000Z,24.7
2022-09-01T16:52:41.000Z,24.7
2022-09-01T16:53:56.000Z,24.7
2022-09-01T16:55:11.000Z,24.7
2022-09-01T16:56:27.000Z,24.7
2022-09-01T16:57:43.000Z,24.7
2022-09-01T16:58:59.000Z,24.7
2022-09-01T17:00:14.000Z,24.7
2022-09-01T17:01:30.000Z,24.6
2022-09-01T17:02:46.000Z,24.6
2022-09-01T17:04:02.000Z,24.5
2022-09-01T17:05:19.000Z,24.4
2022-09-01T17:06:35.000Z,24.5
2022-09-01T17:07:51.000Z,24.5
2022-09-01T17:09:07.000Z,24.4
2022-09-01T17:10:23.000Z,24.4
2022-09-01T17:11:40.000Z,24.3
2022-09-01T17:12:56.000Z,24.3
2022-09-01T17:14:12.000Z,24.3
2022-09-01T17:15:28.000Z,24.3
2022-09-01T17:16:43.000Z,24.3
2022-09-01T17:18:00.000Z,24.3
2022-09-01T17:19:16.000Z,24.3
2022-09-01T17:20:32.000Z,24.4